Time,TemperatureF,DewpointF,PressureIn,WindDirection,WindDirectionDegrees,WindSpeedMPH,WindSpeedGustMPH,Humidity,HourlyPrecipIn,Conditions,Clouds,dailyrainin,SoftwareType,DateUTC
2013-01-29 00:00:00,53.2,49.1,30.30,West,260,7.0,8.0,86,0.00,,---,0.00,VWS V14.01,2013-01-29 05:00:00,
2013-01-29 00:01:00,53.2,49.1,30.30,WSW,255,7.0,7.0,86,0.00,,---,0.00,VWS V14.01,2013-01-29 05:01:00,
2013-01-29 00:02:00,53.2,49.1,30.30,West,267,5.0,7.0,86,0.00,,---,0.00,VWS V14.01,2013-01-29 05:02:00,
2013-01-29 00:07:00,53.0,48.9,30.30,SW,236,8.0,8.0,86,0.00,,---,0.00,VWS V14.01,2013-01-29 05:07:00,
2013-01-29 00:12:00,52.9,48.8,30.29,WNW,288,6.0,9.0,86,0.00,,---,0.00,VWS V14.01,2013-01-29 05:12:00,
2013-01-29 00:17:00,52.8,48.7,30.30,West,276,5.0,9.0,86,0.00,,---,0.00,VWS V14.01,2013-01-29 05:17:00,
2013-01-29 00:22:00,52.6,48.2,30.30,West,275,5.0,5.0,85,0.00,,---,0.00,VWS V14.01,2013-01-29 05:22:00,
2013-01-29 00:27:00,52.4,48.0,30.29,West,261,6.0,7.0,85,0.00,,---,0.00,VWS V14.01,2013-01-29 05:27:00,
2013-01-29 00:32:00,52.2,47.8,30.29,WSW,242,2.0,2.0,85,0.00,,---,0.00,VWS V14.01,2013-01-29 05:32:00,
2013-01-29 00:37:00,52.0,47.6,30.29,WNW,286,3.0,7.0,85,0.00,,---,0.00,VWS V14.01,2013-01-29 05:37:00,
2013-01-29 00:42:00,51.8,47.4,30.29,WSW,256,3.0,4.0,85,0.00,,---,0.00,VWS V14.01,2013-01-29 05:42:00,
2013-01-29 00:47:00,51.7,47.3,30.29,WSW,252,2.0,2.0,85,0.00,,---,0.00,VWS V14.01,2013-01-29 05:47:00,
2013-01-29 00:52:00,51.5,47.2,30.29,West,271,3.0,3.0,85,0.00,,---,0.00,VWS V14.01,2013-01-29 05:52:00,
2013-01-29 00:57:00,51.5,47.2,30.29,West,270,2.0,5.0,85,0.00,,---,0.00,VWS V14.01,2013-01-29 05:57:00,
2013-01-29 01:02:00,51.3,47.0,30.29,West,269,8.0,8.0,85,0.00,,---,0.00,VWS V14.01,2013-01-29 06:02:00,
2013-01-29 01:07:00,51.2,46.8,30.29,WSW,242,2.0,4.0,85,0.00,,---,0.00,VWS V14.01,2013-01-29 06:07:00,
2013-01-29 01:12:00,51.1,46.8,30.29,WSW,246,3.0,5.0,85,0.00,,---,0.00,VWS V14.01,2013-01-29 06:12:00,
2013-01-29 01:17:00,50.9,46.6,30.29,West,276,4.0,5.0,85,0.00,,---,0.00,VWS V14.01,2013-01-29 06:17:00,
2013-01-29 01:22:00,50.9,46.6,30.29,West,264,5.0,5.0,85,0.00,,---,0.00,VWS V14.01,2013-01-29 06:22:00,
2013-01-29 01:27:00,50.7,46.4,30.28,WSW,249,6.0,6.0,85,0.00,,---,0.00,VWS V14.01,2013-01-29 06:27:00,
2013-01-29 01:32:00,50.6,46.3,30.28,West,271,2.0,4.0,85,0.00,,---,0.00,VWS V14.01,2013-01-29 06:32:00,
2013-01-29 01:37:00,50.5,46.5,30.28,WSW,246,4.0,5.0,86,0.00,,---,0.00,VWS V14.01,2013-01-29 06:37:00,
2013-01-29 01:42:00,50.5,46.5,30.28,West,261,4.0,5.0,86,0.00,,---,0.00,VWS V14.01,2013-01-29 06:42:00,
2013-01-29 01:47:00,50.4,46.4,30.28,West,260,2.0,2.0,86,0.00,,---,0.00,VWS V14.01,2013-01-29 06:47:00,
2013-01-29 01:52:00,50.3,46.3,30.28,WSW,248,2.0,3.0,86,0.00,,---,0.00,VWS V14.01,2013-01-29 06:52:00,
2013-01-29 01:57:00,50.1,46.1,30.28,WSW,254,4.0,4.0,86,0.00,,---,0.00,VWS V14.01,2013-01-29 06:57:00,
2013-01-29 02:02:00,50.0,46.0,30.28,WSW,253,2.0,2.0,86,0.00,,---,0.00,VWS V14.01,2013-01-29 07:02:00,
2013-01-29 02:07:00,50.0,46.3,30.27,WSW,249,4.0,4.0,87,0.00,,---,0.00,VWS V14.01,2013-01-29 07:07:00,
2013-01-29 02:12:00,49.9,46.2,30.28,WSW,242,4.0,5.0,87,0.00,,---,0.00,VWS V14.01,2013-01-29 07:12:00,
2013-01-29 02:17:00,49.9,46.2,30.28,WSW,237,4.0,4.0,87,0.00,,---,0.00,VWS V14.01,2013-01-29 07:17:00,
2013-01-29 02:22:00,49.9,46.2,30.27,SSW,203,2.0,2.0,87,0.00,,---,0.00,VWS V14.01,2013-01-29 07:22:00,
2013-01-29 02:27:00,49.9,46.2,30.27,SSW,211,4.0,6.0,87,0.00,,---,0.00,VWS V14.01,2013-01-29 07:27:00,
2013-01-29 02:32:00,49.9,46.2,30.27,WSW,250,3.0,4.0,87,0.00,,---,0.00,VWS V14.01,2013-01-29 07:32:00,
2013-01-29 02:37:00,49.9,46.2,30.27,WSW,246,5.0,7.0,87,0.00,,---,0.00,VWS V14.01,2013-01-29 07:37:00,
2013-01-29 02:42:00,49.9,46.2,30.27,WSW,254,3.0,3.0,87,0.00,,---,0.00,VWS V14.01,2013-01-29 07:42:00,
2013-01-29 02:47:00,49.8,46.1,30.27,WSW,252,3.0,5.0,87,0.00,,---,0.00,VWS V14.01,2013-01-29 07:47:00,
2013-01-29 02:52:00,49.7,46.0,30.27,WSW,244,4.0,6.0,87,0.00,,---,0.00,VWS V14.01,2013-01-29 07:52:00,
2013-01-29 02:57:00,49.4,45.7,30.27,SW,230,3.0,4.0,87,0.00,,---,0.00,VWS V14.01,2013-01-29 07:57:00,
2013-01-29 03:02:00,49.2,45.8,30.27,SW,225,2.0,4.0,88,0.00,,---,0.00,VWS V14.01,2013-01-29 08:02:00,
2013-01-29 03:07:00,49.1,45.7,30.27,WSW,237,4.0,4.0,88,0.00,,---,0.00,VWS V14.01,2013-01-29 08:07:00,
2013-01-29 03:12:00,49.0,45.6,30.27,WSW,254,3.0,4.0,88,0.00,,---,0.00,VWS V14.01,2013-01-29 08:12:00,
2013-01-29 03:17:00,48.9,45.8,30.27,WSW,257,2.0,2.0,89,0.00,,---,0.00,VWS V14.01,2013-01-29 08:17:00,
2013-01-29 03:22:00,48.9,45.8,30.27,WSW,240,4.0,5.0,89,0.00,,---,0.00,VWS V14.01,2013-01-29 08:22:00,
2013-01-29 03:27:00,48.8,45.7,30.27,WSW,246,2.0,2.0,89,0.00,,---,0.00,VWS V14.01,2013-01-29 08:27:00,
2013-01-29 03:32:00,48.7,45.6,30.27,WSW,257,3.0,3.0,89,0.00,,---,0.00,VWS V14.01,2013-01-29 08:32:00,
2013-01-29 03:37:00,48.7,45.6,30.27,WSW,240,2.0,3.0,89,0.00,,---,0.00,VWS V14.01,2013-01-29 08:37:00,
2013-01-29 03:42:00,48.7,45.6,30.26,West,269,3.0,5.0,89,0.00,,---,0.00,VWS V14.01,2013-01-29 08:42:00,
2013-01-29 03:47:00,48.7,45.6,30.26,WSW,242,2.0,3.0,89,0.00,,---,0.00,VWS V14.01,2013-01-29 08:47:00,
2013-01-29 03:52:00,48.7,45.9,30.26,WSW,252,3.0,5.0,90,0.00,,---,0.00,VWS V14.01,2013-01-29 08:52:00,
2013-01-29 03:57:00,48.8,46.0,30.26,WSW,243,3.0,4.0,90,0.00,,---,0.00,VWS V14.01,2013-01-29 08:57:00,
2013-01-29 04:02:00,48.9,46.1,30.26,WSW,247,3.0,6.0,90,0.00,,---,0.00,VWS V14.01,2013-01-29 09:02:00,
2013-01-29 04:07:00,49.0,46.2,30.26,West,268,2.0,2.0,90,0.00,,---,0.00,VWS V14.01,2013-01-29 09:07:00,
2013-01-29 04:12:00,48.9,46.1,30.26,WSW,240,5.0,6.0,90,0.00,,---,0.00,VWS V14.01,2013-01-29 09:12:00,
2013-01-29 04:17:00,48.9,46.1,30.26,WSW,255,3.0,4.0,90,0.00,,---,0.00,VWS V14.01,2013-01-29 09:17:00,
2013-01-29 04:22:00,49.0,46.2,30.26,WSW,251,4.0,4.0,90,0.00,,---,0.00,VWS V14.01,2013-01-29 09:22:00,
2013-01-29 04:27:00,49.0,46.2,30.26,SW,231,3.0,4.0,90,0.00,,---,0.00,VWS V14.01,2013-01-29 09:27:00,
2013-01-29 04:32:00,49.1,46.3,30.25,WSW,245,3.0,6.0,90,0.00,,---,0.00,VWS V14.01,2013-01-29 09:32:00,
2013-01-29 04:37:00,49.0,46.2,30.25,SW,230,5.0,5.0,90,0.00,,---,0.00,VWS V14.01,2013-01-29 09:37:00,
2013-01-29 04:42:00,49.1,46.3,30.25,WSW,240,4.0,6.0,90,0.00,,---,0.00,VWS V14.01,2013-01-29 09:42:00,
2013-01-29 04:47:00,49.1,46.3,30.25,WSW,248,3.0,4.0,90,0.00,,---,0.00,VWS V14.01,2013-01-29 09:47:00,
2013-01-29 04:52:00,49.1,46.6,30.25,SW,226,5.0,5.0,91,0.00,,---,0.00,VWS V14.01,2013-01-29 09:52:00,
2013-01-29 04:57:00,49.1,46.6,30.25,West,280,1.0,6.0,91,0.00,,---,0.00,VWS V14.01,2013-01-29 09:57:00,
2013-01-29 05:02:00,49.2,46.7,30.25,WSW,250,3.0,4.0,91,0.00,,---,0.00,VWS V14.01,2013-01-29 10:02:00,
2013-01-29 05:07:00,49.4,46.9,30.25,SW,229,4.0,5.0,91,0.00,,---,0.00,VWS V14.01,2013-01-29 10:07:00,
2013-01-29 05:12:00,49.5,46.7,30.25,SW,231,3.0,5.0,90,0.00,,---,0.00,VWS V14.01,2013-01-29 10:12:00,
2013-01-29 05:17:00,49.4,46.6,30.25,WNW,287,4.0,4.0,90,0.00,,---,0.00,VWS V14.01,2013-01-29 10:17:00,
2013-01-29 05:22:00,49.3,46.8,30.25,West,269,4.0,7.0,91,0.00,,---,0.00,VWS V14.01,2013-01-29 10:22:00,
2013-01-29 05:27:00,49.3,46.5,30.25,WSW,253,7.0,7.0,90,0.00,,---,0.00,VWS V14.01,2013-01-29 10:27:00,
2013-01-29 05:32:00,49.3,46.5,30.25,West,280,7.0,7.0,90,0.00,,---,0.00,VWS V14.01,2013-01-29 10:32:00,
2013-01-29 05:37:00,49.3,46.5,30.25,SW,236,4.0,6.0,90,0.00,,---,0.00,VWS V14.01,2013-01-29 10:37:00,
2013-01-29 05:42:00,49.2,46.7,30.25,WSW,257,5.0,8.0,91,0.00,,---,0.00,VWS V14.01,2013-01-29 10:42:00,
2013-01-29 05:47:00,49.2,46.7,30.26,West,261,2.0,5.0,91,0.00,,---,0.00,VWS V14.01,2013-01-29 10:47:00,
2013-01-29 05:52:00,49.2,46.7,30.26,West,281,4.0,6.0,91,0.00,,---,0.00,VWS V14.01,2013-01-29 10:52:00,
2013-01-29 05:57:00,49.2,46.7,30.26,West,262,3.0,7.0,91,0.00,,---,0.00,VWS V14.01,2013-01-29 10:57:00,
2013-01-29 06:02:00,49.2,46.7,30.26,WSW,244,7.0,8.0,91,0.00,,---,0.00,VWS V14.01,2013-01-29 11:02:00,
2013-01-29 06:07:00,49.2,46.7,30.26,WSW,250,6.0,10.0,91,0.00,,---,0.00,VWS V14.01,2013-01-29 11:07:00,
2013-01-29 06:12:00,49.2,46.7,30.26,WNW,286,8.0,8.0,91,0.00,,---,0.00,VWS V14.01,2013-01-29 11:12:00,
2013-01-29 06:17:00,49.3,46.8,30.26,West,268,4.0,7.0,91,0.00,,---,0.00,VWS V14.01,2013-01-29 11:17:00,
2013-01-29 06:22:00,49.3,46.8,30.26,West,268,3.0,11.0,91,0.00,,---,0.00,VWS V14.01,2013-01-29 11:22:00,
2013-01-29 06:27:00,49.3,46.8,30.26,WNW,283,4.0,5.0,91,0.00,,---,0.00,VWS V14.01,2013-01-29 11:27:00,
2013-01-29 06:32:00,49.3,46.8,30.26,West,275,3.0,6.0,91,0.00,,---,0.00,VWS V14.01,2013-01-29 11:32:00,
2013-01-29 06:37:00,49.4,46.9,30.26,West,261,11.0,11.0,91,0.00,,---,0.00,VWS V14.01,2013-01-29 11:37:00,
2013-01-29 06:42:00,49.4,46.9,30.26,WSW,251,5.0,7.0,91,0.00,,---,0.00,VWS V14.01,2013-01-29 11:42:00,
2013-01-29 06:47:00,49.3,46.8,30.26,West,273,4.0,7.0,91,0.00,,---,0.00,VWS V14.01,2013-01-29 11:47:00,
2013-01-29 06:52:00,49.3,46.8,30.26,West,261,7.0,8.0,91,0.00,,---,0.00,VWS V14.01,2013-01-29 11:52:00,
2013-01-29 06:57:00,49.3,46.8,30.26,West,275,4.0,5.0,91,0.00,,---,0.00,VWS V14.01,2013-01-29 11:57:00,
2013-01-29 07:02:00,49.4,46.9,30.26,WSW,253,4.0,4.0,91,0.00,,---,0.00,VWS V14.01,2013-01-29 12:02:00,
2013-01-29 07:07:00,49.3,46.8,30.27,WSW,248,2.0,4.0,91,0.00,,---,0.00,VWS V14.01,2013-01-29 12:07:00,
2013-01-29 07:11:00,49.3,46.8,30.26,West,268,7.0,9.0,91,0.00,,---,0.00,VWS V14.01,2013-01-29 12:11:00,
2013-01-29 07:16:00,49.3,46.8,30.26,SW,236,2.0,2.0,91,0.00,,---,0.00,VWS V14.01,2013-01-29 12:16:00,
2013-01-29 07:21:00,49.1,46.6,30.26,WSW,242,4.0,4.0,91,0.00,,---,0.00,VWS V14.01,2013-01-29 12:21:00,
2013-01-29 07:26:00,49.0,46.5,30.26,West,272,3.0,4.0,91,0.00,,---,0.00,VWS V14.01,2013-01-29 12:26:00,
2013-01-29 07:31:00,48.9,46.7,30.26,West,260,4.0,4.0,92,0.00,,---,0.00,VWS V14.01,2013-01-29 12:31:00,
2013-01-29 07:36:00,48.8,46.6,30.27,WSW,245,4.0,4.0,92,0.00,,---,0.00,VWS V14.01,2013-01-29 12:36:00,
2013-01-29 07:41:00,48.8,46.6,30.27,West,279,5.0,5.0,92,0.00,,---,0.00,VWS V14.01,2013-01-29 12:41:00,
2013-01-29 07:46:00,48.8,46.6,30.27,WSW,246,2.0,3.0,92,0.00,,---,0.00,VWS V14.01,2013-01-29 12:46:00,
2013-01-29 07:51:00,48.9,46.7,30.27,WSW,240,2.0,4.0,92,0.00,,---,0.00,VWS V14.01,2013-01-29 12:51:00,
2013-01-29 07:56:00,49.0,46.8,30.27,WSW,238,4.0,4.0,92,0.00,,---,0.00,VWS V14.01,2013-01-29 12:56:00,
2013-01-29 08:01:00,49.1,46.9,30.27,West,261,2.0,4.0,92,0.00,,---,0.00,VWS V14.01,2013-01-29 13:01:00,
2013-01-29 08:06:00,49.3,46.8,30.27,WSW,250,3.0,3.0,91,0.00,,---,0.00,VWS V14.01,2013-01-29 13:06:00,
2013-01-29 08:11:00,49.3,46.8,30.27,WSW,254,3.0,4.0,91,0.00,,---,0.00,VWS V14.01,2013-01-29 13:11:00,
2013-01-29 08:16:00,49.5,47.0,30.27,West,265,3.0,3.0,91,0.00,,---,0.00,VWS V14.01,2013-01-29 13:16:00,
2013-01-29 08:21:00,49.7,47.2,30.27,WSW,238,3.0,4.0,91,0.00,,---,0.00,VWS V14.01,2013-01-29 13:21:00,
2013-01-29 08:26:00,50.0,47.5,30.27,WSW,250,3.0,6.0,91,0.00,,---,0.00,VWS V14.01,2013-01-29 13:26:00,
2013-01-29 08:31:00,50.4,47.6,30.27,West,270,5.0,6.0,90,0.00,,---,0.00,VWS V14.01,2013-01-29 13:31:00,
2013-01-29 08:36:00,50.7,47.9,30.27,WNW,282,2.0,2.0,90,0.00,,---,0.00,VWS V14.01,2013-01-29 13:36:00,
2013-01-29 08:41:00,51.0,47.9,30.27,WNW,287,5.0,6.0,89,0.00,,---,0.00,VWS V14.01,2013-01-29 13:41:00,
2013-01-29 08:46:00,51.4,48.3,30.27,West,260,5.0,5.0,89,0.00,,---,0.00,VWS V14.01,2013-01-29 13:46:00,
2013-01-29 08:51:00,51.9,48.5,30.27,WSW,242,9.0,9.0,88,0.00,,---,0.00,VWS V14.01,2013-01-29 13:51:00,
2013-01-29 08:56:00,52.3,48.9,30.27,WSW,249,5.0,6.0,88,0.00,,---,0.00,VWS V14.01,2013-01-29 13:56:00,
2013-01-29 09:01:00,52.9,49.1,30.27,West,277,4.0,5.0,87,0.00,,---,0.00,VWS V14.01,2013-01-29 14:01:00,
2013-01-29 09:06:00,53.3,49.2,30.27,WSW,254,7.0,7.0,86,0.00,,---,0.00,VWS V14.01,2013-01-29 14:06:00,
2013-01-29 09:11:00,53.6,49.5,30.27,SW,219,2.0,4.0,86,0.00,,---,0.00,VWS V14.01,2013-01-29 14:11:00,
2013-01-29 09:16:00,54.1,49.7,30.26,West,261,7.0,7.0,85,0.00,,---,0.00,VWS V14.01,2013-01-29 14:16:00,
2013-01-29 09:21:00,54.6,50.2,30.27,WNW,288,4.0,5.0,85,0.00,,---,0.00,VWS V14.01,2013-01-29 14:21:00,
2013-01-29 09:26:00,55.2,50.5,30.26,West,259,3.0,6.0,84,0.00,,---,0.00,VWS V14.01,2013-01-29 14:26:00,
2013-01-29 09:31:00,55.7,51.0,30.27,West,269,8.0,10.0,84,0.00,,---,0.00,VWS V14.01,2013-01-29 14:31:00,
2013-01-29 09:36:00,56.4,51.3,30.27,West,271,8.0,8.0,83,0.00,,---,0.00,VWS V14.01,2013-01-29 14:36:00,
2013-01-29 09:41:00,56.6,51.5,30.26,West,267,7.0,11.0,83,0.00,,---,0.00,VWS V14.01,2013-01-29 14:41:00,
2013-01-29 09:46:00,56.7,51.6,30.26,West,279,7.0,14.0,83,0.00,,---,0.00,VWS V14.01,2013-01-29 14:46:00,
2013-01-29 09:51:00,57.1,52.0,30.26,WSW,257,9.0,9.0,83,0.00,,---,0.00,VWS V14.01,2013-01-29 14:51:00,
2013-01-29 09:56:00,57.4,52.3,30.26,WSW,257,7.0,9.0,83,0.00,,---,0.00,VWS V14.01,2013-01-29 14:56:00,
2013-01-29 10:01:00,57.8,52.3,30.26,West,259,5.0,11.0,82,0.00,,---,0.00,VWS V14.01,2013-01-29 15:01:00,
2013-01-29 10:06:00,58.0,52.5,30.26,WNW,286,9.0,9.0,82,0.00,,---,0.00,VWS V14.01,2013-01-29 15:06:00,
2013-01-29 10:11:00,58.3,52.8,30.26,SSW,206,5.0,5.0,82,0.00,,---,0.00,VWS V14.01,2013-01-29 15:11:00,
2013-01-29 10:16:00,58.7,52.9,30.26,West,265,4.0,4.0,81,0.00,,---,0.00,VWS V14.01,2013-01-29 15:16:00,
2013-01-29 10:21:00,59.2,53.4,30.26,WSW,246,5.0,8.0,81,0.00,,---,0.00,VWS V14.01,2013-01-29 15:21:00,
2013-01-29 10:26:00,59.8,53.6,30.26,West,275,6.0,9.0,80,0.00,,---,0.00,VWS V14.01,2013-01-29 15:26:00,
2013-01-29 10:31:00,60.1,53.6,30.26,West,270,5.0,5.0,79,0.00,,---,0.00,VWS V14.01,2013-01-29 15:31:00,
2013-01-29 10:36:00,60.5,53.6,30.26,WNW,284,9.0,10.0,78,0.00,,---,0.00,VWS V14.01,2013-01-29 15:36:00,
2013-01-29 10:41:00,60.6,54.1,30.27,WSW,256,6.0,6.0,79,0.00,,---,0.00,VWS V14.01,2013-01-29 15:41:00,
2013-01-29 10:46:00,61.1,54.2,30.27,West,269,6.0,8.0,78,0.00,,---,0.00,VWS V14.01,2013-01-29 15:46:00,
2013-01-29 10:51:00,61.0,54.1,30.27,West,271,11.0,13.0,78,0.00,,---,0.00,VWS V14.01,2013-01-29 15:51:00,
2013-01-29 10:56:00,61.4,54.8,30.27,West,279,7.0,7.0,79,0.00,,---,0.00,VWS V14.01,2013-01-29 15:56:00,
2013-01-29 11:01:00,61.7,54.8,30.26,WNW,290,6.0,7.0,78,0.00,,---,0.00,VWS V14.01,2013-01-29 16:01:00,
2013-01-29 11:06:00,62.3,55.4,30.26,WSW,249,12.0,14.0,78,0.00,,---,0.00,VWS V14.01,2013-01-29 16:06:00,
2013-01-29 11:11:00,62.7,55.8,30.26,West,267,8.0,10.0,78,0.00,,---,0.00,VWS V14.01,2013-01-29 16:11:00,
2013-01-29 11:16:00,63.4,56.1,30.25,West,263,5.0,10.0,77,0.00,,---,0.00,VWS V14.01,2013-01-29 16:16:00,
2013-01-29 11:21:00,64.2,56.8,30.25,West,272,5.0,8.0,77,0.00,,---,0.00,VWS V14.01,2013-01-29 16:21:00,
2013-01-29 11:26:00,65.0,57.3,30.25,West,261,5.0,7.0,76,0.00,,---,0.00,VWS V14.01,2013-01-29 16:26:00,
2013-01-29 11:31:00,65.6,57.5,30.25,West,277,6.0,12.0,75,0.00,,---,0.00,VWS V14.01,2013-01-29 16:31:00,
2013-01-29 11:36:00,66.0,57.5,30.24,WNW,286,16.0,16.0,74,0.00,,---,0.00,VWS V14.01,2013-01-29 16:36:00,
2013-01-29 11:41:00,66.2,57.7,30.24,West,264,5.0,10.0,74,0.00,,---,0.00,VWS V14.01,2013-01-29 16:41:00,
2013-01-29 11:46:00,66.5,57.6,30.24,West,279,8.0,8.0,73,0.00,,---,0.00,VWS V14.01,2013-01-29 16:46:00,
2013-01-29 11:51:00,67.0,58.1,30.23,West,281,10.0,10.0,73,0.00,,---,0.00,VWS V14.01,2013-01-29 16:51:00,
2013-01-29 11:56:00,67.1,57.8,30.23,West,269,6.0,7.0,72,0.00,,---,0.00,VWS V14.01,2013-01-29 16:56:00,
2013-01-29 12:01:00,67.3,57.6,30.23,West,281,11.0,12.0,71,0.00,,---,0.00,VWS V14.01,2013-01-29 17:01:00,
2013-01-29 12:06:00,67.2,57.9,30.22,West,265,3.0,5.0,72,0.00,,---,0.00,VWS V14.01,2013-01-29 17:06:00,
2013-01-29 12:11:00,67.3,57.6,30.22,West,280,10.0,10.0,71,0.00,,---,0.00,VWS V14.01,2013-01-29 17:11:00,
2013-01-29 12:16:00,67.6,57.9,30.21,West,275,5.0,8.0,71,0.00,,---,0.00,VWS V14.01,2013-01-29 17:16:00,
2013-01-29 12:21:00,67.8,57.7,30.21,West,263,6.0,8.0,70,0.00,,---,0.00,VWS V14.01,2013-01-29 17:21:00,
2013-01-29 12:26:00,68.2,58.0,30.20,SW,219,4.0,4.0,70,0.00,,---,0.00,VWS V14.01,2013-01-29 17:26:00,
2013-01-29 12:31:00,68.6,57.6,30.20,WSW,245,9.0,12.0,68,0.00,,---,0.00,VWS V14.01,2013-01-29 17:31:00,
2013-01-29 12:36:00,68.6,57.6,30.20,West,279,3.0,7.0,68,0.00,,---,0.00,VWS V14.01,2013-01-29 17:36:00,
2013-01-29 12:41:00,68.9,57.9,30.19,WSW,257,2.0,2.0,68,0.00,,---,0.00,VWS V14.01,2013-01-29 17:41:00,
2013-01-29 12:46:00,69.1,57.7,30.19,West,273,8.0,9.0,67,0.00,,---,0.00,VWS V14.01,2013-01-29 17:46:00,
2013-01-29 12:51:00,69.1,57.7,30.19,West,276,9.0,11.0,67,0.00,,---,0.00,VWS V14.01,2013-01-29 17:51:00,
2013-01-29 12:56:00,69.3,57.9,30.18,WSW,256,4.0,6.0,67,0.00,,---,0.00,VWS V14.01,2013-01-29 17:56:00,
2013-01-29 13:01:00,69.6,58.2,30.18,WSW,253,7.0,8.0,67,0.00,,---,0.00,VWS V14.01,2013-01-29 18:01:00,
2013-01-29 13:06:00,69.6,58.2,30.18,West,275,4.0,5.0,67,0.00,,---,0.00,VWS V14.01,2013-01-29 18:06:00,
2013-01-29 13:11:00,70.0,58.1,30.18,West,277,12.0,12.0,66,0.00,,---,0.00,VWS V14.01,2013-01-29 18:11:00,
2013-01-29 13:16:00,69.7,57.8,30.17,West,278,10.0,12.0,66,0.00,,---,0.00,VWS V14.01,2013-01-29 18:16:00,
2013-01-29 13:21:00,69.7,57.8,30.17,WSW,250,6.0,6.0,66,0.00,,---,0.00,VWS V14.01,2013-01-29 18:21:00,
2013-01-29 13:26:00,69.8,57.9,30.17,West,271,7.0,10.0,66,0.00,,---,0.00,VWS V14.01,2013-01-29 18:26:00,
2013-01-29 13:31:00,69.9,58.0,30.17,WNW,297,6.0,7.0,66,0.00,,---,0.00,VWS V14.01,2013-01-29 18:31:00,
2013-01-29 13:36:00,70.1,58.2,30.17,West,277,4.0,6.0,66,0.00,,---,0.00,VWS V14.01,2013-01-29 18:36:00,
2013-01-29 13:41:00,70.3,57.6,30.17,WNW,295,9.0,10.0,64,0.00,,---,0.00,VWS V14.01,2013-01-29 18:41:00,
2013-01-29 13:46:00,70.5,58.2,30.17,WNW,291,3.0,4.0,65,0.00,,---,0.00,VWS V14.01,2013-01-29 18:46:00,
2013-01-29 13:51:00,71.0,58.2,30.16,WNW,291,3.0,4.0,64,0.00,,---,0.00,VWS V14.01,2013-01-29 18:51:00,
2013-01-29 13:56:00,71.1,58.3,30.16,WSW,242,7.0,7.0,64,0.00,,---,0.00,VWS V14.01,2013-01-29 18:56:00,
2013-01-29 14:01:00,71.2,58.4,30.16,WSW,254,4.0,4.0,64,0.00,,---,0.00,VWS V14.01,2013-01-29 19:01:00,
2013-01-29 14:06:00,71.2,58.4,30.16,WNW,284,3.0,3.0,64,0.00,,---,0.00,VWS V14.01,2013-01-29 19:06:00,
2013-01-29 14:11:00,71.4,57.7,30.16,West,271,6.0,8.0,62,0.00,,---,0.00,VWS V14.01,2013-01-29 19:11:00,
2013-01-29 14:16:00,71.2,57.5,30.16,West,271,7.0,10.0,62,0.00,,---,0.00,VWS V14.01,2013-01-29 19:16:00,
2013-01-29 14:21:00,71.2,57.5,30.16,WNW,287,5.0,12.0,62,0.00,,---,0.00,VWS V14.01,2013-01-29 19:21:00,
2013-01-29 14:26:00,71.4,58.2,30.16,West,276,5.0,6.0,63,0.00,,---,0.00,VWS V14.01,2013-01-29 19:26:00,
2013-01-29 14:31:00,71.4,57.7,30.15,West,275,9.0,12.0,62,0.00,,---,0.00,VWS V14.01,2013-01-29 19:31:00,
2013-01-29 14:36:00,71.7,57.5,30.15,West,269,3.0,3.0,61,0.00,,---,0.00,VWS V14.01,2013-01-29 19:36:00,
2013-01-29 14:41:00,72.0,57.8,30.15,WNW,287,6.0,9.0,61,0.00,,---,0.00,VWS V14.01,2013-01-29 19:41:00,
2013-01-29 14:46:00,72.4,58.2,30.15,WSW,237,4.0,6.0,61,0.00,,---,0.00,VWS V14.01,2013-01-29 19:46:00,
2013-01-29 14:51:00,72.9,58.7,30.15,West,267,2.0,2.0,61,0.00,,---,0.00,VWS V14.01,2013-01-29 19:51:00,
2013-01-29 14:56:00,73.0,58.3,30.15,West,263,3.0,5.0,60,0.00,,---,0.00,VWS V14.01,2013-01-29 19:56:00,
2013-01-29 14:57:00,73.1,58.4,30.15,WSW,250,3.0,3.0,60,0.00,,---,0.00,VWS V14.01,2013-01-29 19:57:00,
2013-01-29 15:02:00,73.4,58.2,30.15,WSW,240,4.0,6.0,59,0.00,,---,0.00,VWS V14.01,2013-01-29 20:02:00,
2013-01-29 15:07:00,73.3,58.1,30.15,WSW,238,6.0,8.0,59,0.00,,---,0.00,VWS V14.01,2013-01-29 20:07:00,
2013-01-29 15:12:00,73.5,57.8,30.15,WSW,245,6.0,7.0,58,0.00,,---,0.00,VWS V14.01,2013-01-29 20:12:00,
2013-01-29 15:17:00,73.8,57.1,30.14,SW,224,9.0,10.0,56,0.00,,---,0.00,VWS V14.01,2013-01-29 20:17:00,
2013-01-29 15:22:00,73.6,57.0,30.14,West,260,7.0,7.0,56,0.00,,---,0.00,VWS V14.01,2013-01-29 20:22:00,
2013-01-29 15:27:00,73.7,57.0,30.14,SW,221,8.0,8.0,56,0.00,,---,0.00,VWS V14.01,2013-01-29 20:27:00,
2013-01-29 15:32:00,73.7,56.5,30.15,West,276,14.0,14.0,55,0.00,,---,0.00,VWS V14.01,2013-01-29 20:32:00,
2013-01-29 15:37:00,73.3,56.2,30.14,West,273,13.0,13.0,55,0.00,,---,0.00,VWS V14.01,2013-01-29 20:37:00,
2013-01-29 15:42:00,73.1,56.5,30.14,West,276,6.0,7.0,56,0.00,,---,0.00,VWS V14.01,2013-01-29 20:42:00,
2013-01-29 15:47:00,73.5,56.9,30.14,WSW,242,4.0,4.0,56,0.00,,---,0.00,VWS V14.01,2013-01-29 20:47:00,
2013-01-29 15:52:00,73.7,56.5,30.14,SW,233,6.0,7.0,55,0.00,,---,0.00,VWS V14.01,2013-01-29 20:52:00,
2013-01-29 15:57:00,73.8,56.6,30.14,West,276,5.0,6.0,55,0.00,,---,0.00,VWS V14.01,2013-01-29 20:57:00,
2013-01-29 16:02:00,73.7,56.5,30.14,West,266,6.0,6.0,55,0.00,,---,0.00,VWS V14.01,2013-01-29 21:02:00,
2013-01-29 16:07:00,73.5,56.9,30.14,West,281,6.0,6.0,56,0.00,,---,0.00,VWS V14.01,2013-01-29 21:07:00,
2013-01-29 16:12:00,73.5,56.4,30.14,WSW,238,7.0,8.0,55,0.00,,---,0.00,VWS V14.01,2013-01-29 21:12:00,
2013-01-29 16:17:00,73.4,56.3,30.14,West,264,3.0,6.0,55,0.00,,---,0.00,VWS V14.01,2013-01-29 21:17:00,
2013-01-29 16:22:00,73.5,56.4,30.14,West,261,9.0,12.0,55,0.00,,---,0.00,VWS V14.01,2013-01-29 21:22:00,
2013-01-29 16:27:00,73.2,56.1,30.14,West,264,6.0,9.0,55,0.00,,---,0.00,VWS V14.01,2013-01-29 21:27:00,
2013-01-29 16:32:00,73.0,55.9,30.14,West,267,5.0,6.0,55,0.00,,---,0.00,VWS V14.01,2013-01-29 21:32:00,
2013-01-29 16:37:00,72.7,56.1,30.13,West,277,5.0,6.0,56,0.00,,---,0.00,VWS V14.01,2013-01-29 21:37:00,
2013-01-29 16:42:00,72.7,56.1,30.13,WSW,258,6.0,6.0,56,0.00,,---,0.00,VWS V14.01,2013-01-29 21:42:00,
2013-01-29 16:47:00,72.6,56.5,30.14,West,263,2.0,4.0,57,0.00,,---,0.00,VWS V14.01,2013-01-29 21:47:00,
2013-01-29 16:52:00,72.6,56.5,30.14,West,276,7.0,8.0,57,0.00,,---,0.00,VWS V14.01,2013-01-29 21:52:00,
2013-01-29 16:57:00,72.6,56.5,30.13,WSW,254,1.0,2.0,57,0.00,,---,0.00,VWS V14.01,2013-01-29 21:57:00,
2013-01-29 17:02:00,72.5,56.4,30.13,WSW,246,2.0,2.0,57,0.00,,---,0.00,VWS V14.01,2013-01-29 22:02:00,
2013-01-29 17:07:00,72.6,56.5,30.14,SW,236,3.0,3.0,57,0.00,,---,0.00,VWS V14.01,2013-01-29 22:07:00,
2013-01-29 17:12:00,72.2,56.6,30.14,WSW,242,3.0,3.0,58,0.00,,---,0.00,VWS V14.01,2013-01-29 22:12:00,
2013-01-29 17:17:00,71.8,56.2,30.13,West,265,1.0,1.0,58,0.00,,---,0.00,VWS V14.01,2013-01-29 22:17:00,
2013-01-29 17:22:00,71.4,56.3,30.14,WSW,254,1.0,1.0,59,0.00,,---,0.00,VWS V14.01,2013-01-29 22:22:00,
2013-01-29 17:27:00,71.0,56.4,30.14,SW,217,3.0,4.0,60,0.00,,---,0.00,VWS V14.01,2013-01-29 22:27:00,
2013-01-29 17:32:00,70.6,56.1,30.13,SW,223,3.0,4.0,60,0.00,,---,0.00,VWS V14.01,2013-01-29 22:32:00,
2013-01-29 17:37:00,70.2,56.1,30.13,WSW,250,2.0,3.0,61,0.00,,---,0.00,VWS V14.01,2013-01-29 22:37:00,
2013-01-29 17:42:00,69.8,56.2,30.13,SW,236,2.0,4.0,62,0.00,,---,0.00,VWS V14.01,2013-01-29 22:42:00,
2013-01-29 17:47:00,69.6,56.5,30.13,SSW,211,0.0,0.0,63,0.00,,---,0.00,VWS V14.01,2013-01-29 22:47:00,
2013-01-29 17:52:00,69.2,56.1,30.13,WSW,248,0.0,0.0,63,0.00,,---,0.00,VWS V14.01,2013-01-29 22:52:00,
2013-01-29 17:57:00,69.0,56.3,30.13,SW,215,1.0,1.0,64,0.00,,---,0.00,VWS V14.01,2013-01-29 22:57:00,
2013-01-29 18:02:00,68.7,56.0,30.13,SSW,210,2.0,2.0,64,0.00,,---,0.00,VWS V14.01,2013-01-29 23:02:00,
2013-01-29 18:07:00,68.5,56.3,30.13,SSW,209,1.0,1.0,65,0.00,,---,0.00,VWS V14.01,2013-01-29 23:07:00,
2013-01-29 18:12:00,68.2,56.4,30.13,SSW,209,1.0,1.0,66,0.00,,---,0.00,VWS V14.01,2013-01-29 23:12:00,
2013-01-29 18:17:00,68.0,56.2,30.13,SSW,208,1.0,1.0,66,0.00,,---,0.00,VWS V14.01,2013-01-29 23:17:00,
2013-01-29 18:22:00,67.8,56.5,30.13,SSW,209,1.0,1.0,67,0.00,,---,0.00,VWS V14.01,2013-01-29 23:22:00,
2013-01-29 18:27:00,67.6,56.3,30.13,SSW,209,1.0,1.0,67,0.00,,---,0.00,VWS V14.01,2013-01-29 23:27:00,
2013-01-29 18:32:00,67.3,56.4,30.13,SSW,209,0.0,0.0,68,0.00,,---,0.00,VWS V14.01,2013-01-29 23:32:00,
2013-01-29 18:37:00,66.8,55.9,30.13,SSW,209,1.0,1.0,68,0.00,,---,0.00,VWS V14.01,2013-01-29 23:37:00,
2013-01-29 18:42:00,66.4,55.9,30.12,SSW,194,2.0,2.0,69,0.00,,---,0.00,VWS V14.01,2013-01-29 23:42:00,
2013-01-29 18:47:00,66.1,56.0,30.13,SSW,203,2.0,2.0,70,0.00,,---,0.00,VWS V14.01,2013-01-29 23:47:00,
2013-01-29 18:52:00,65.8,55.8,30.13,SSW,203,1.0,2.0,70,0.00,,---,0.00,VWS V14.01,2013-01-29 23:52:00,
2013-01-29 18:57:00,65.6,56.0,30.13,SSW,209,1.0,1.0,71,0.00,,---,0.00,VWS V14.01,2013-01-29 23:57:00,
2013-01-29 19:02:00,65.4,55.8,30.13,South,169,2.0,2.0,71,0.00,,---,0.00,VWS V14.01,2013-01-30 00:02:00,
2013-01-29 19:07:00,65.4,56.2,30.13,SSW,209,0.0,1.0,72,0.00,,---,0.00,VWS V14.01,2013-01-30 00:07:00,
2013-01-29 19:12:00,65.2,56.0,30.13,South,176,3.0,4.0,72,0.00,,---,0.00,VWS V14.01,2013-01-30 00:12:00,
2013-01-29 19:17:00,65.3,56.4,30.13,SSW,203,1.0,1.0,73,0.00,,---,0.00,VWS V14.01,2013-01-30 00:17:00,
2013-01-29 19:22:00,65.2,56.3,30.13,SSW,203,2.0,2.0,73,0.00,,---,0.00,VWS V14.01,2013-01-30 00:22:00,
2013-01-29 19:27:00,65.2,56.3,30.13,SW,217,1.0,2.0,73,0.00,,---,0.00,VWS V14.01,2013-01-30 00:27:00,
2013-01-29 19:32:00,65.0,56.2,30.13,SSW,194,2.0,3.0,73,0.00,,---,0.00,VWS V14.01,2013-01-30 00:32:00,
2013-01-29 19:37:00,64.9,56.4,30.13,SSW,202,1.0,2.0,74,0.00,,---,0.00,VWS V14.01,2013-01-30 00:37:00,
2013-01-29 19:42:00,64.7,56.2,30.13,SSE,160,0.0,1.0,74,0.00,,---,0.00,VWS V14.01,2013-01-30 00:42:00,
2013-01-29 19:47:00,64.5,56.4,30.13,South,178,2.0,3.0,75,0.00,,---,0.00,VWS V14.01,2013-01-30 00:47:00,
2013-01-29 19:52:00,64.4,56.3,30.13,SSW,200,3.0,4.0,75,0.00,,---,0.00,VWS V14.01,2013-01-30 00:52:00,
2013-01-29 19:57:00,64.3,56.6,30.13,SW,217,5.0,5.0,76,0.00,,---,0.00,VWS V14.01,2013-01-30 00:57:00,
2013-01-29 20:02:00,64.3,56.6,30.13,South,180,2.0,3.0,76,0.00,,---,0.00,VWS V14.01,2013-01-30 01:02:00,
2013-01-29 20:07:00,64.3,56.6,30.13,SW,222,3.0,3.0,76,0.00,,---,0.00,VWS V14.01,2013-01-30 01:07:00,
2013-01-29 20:12:00,64.3,57.0,30.13,SW,225,2.0,5.0,77,0.00,,---,0.00,VWS V14.01,2013-01-30 01:12:00,
2013-01-29 20:17:00,64.3,57.0,30.13,South,178,4.0,4.0,77,0.00,,---,0.00,VWS V14.01,2013-01-30 01:17:00,
2013-01-29 20:22:00,64.3,57.0,30.13,SW,225,3.0,5.0,77,0.00,,---,0.00,VWS V14.01,2013-01-30 01:22:00,
2013-01-29 20:27:00,64.2,56.8,30.13,SSW,204,1.0,5.0,77,0.00,,---,0.00,VWS V14.01,2013-01-30 01:27:00,
2013-01-29 20:32:00,64.2,57.2,30.13,WSW,238,4.0,5.0,78,0.00,,---,0.00,VWS V14.01,2013-01-30 01:32:00,
2013-01-29 20:37:00,64.2,57.2,30.13,WSW,245,3.0,6.0,78,0.00,,---,0.00,VWS V14.01,2013-01-30 01:37:00,
2013-01-29 20:42:00,64.1,57.1,30.13,SSW,196,4.0,5.0,78,0.00,,---,0.00,VWS V14.01,2013-01-30 01:42:00,
2013-01-29 20:47:00,64.0,57.0,30.13,South,171,3.0,4.0,78,0.00,,---,0.00,VWS V14.01,2013-01-30 01:47:00,
2013-01-29 20:52:00,64.0,57.4,30.13,SSW,207,4.0,4.0,79,0.00,,---,0.00,VWS V14.01,2013-01-30 01:52:00,
2013-01-29 20:57:00,64.0,57.4,30.13,SSW,211,1.0,4.0,79,0.00,,---,0.00,VWS V14.01,2013-01-30 01:57:00,
2013-01-29 21:02:00,64.0,57.4,30.12,SW,214,2.0,5.0,79,0.00,,---,0.00,VWS V14.01,2013-01-30 02:02:00,
2013-01-29 21:07:00,64.0,57.4,30.12,SW,214,4.0,4.0,79,0.00,,---,0.00,VWS V14.01,2013-01-30 02:07:00,
2013-01-29 21:12:00,63.9,57.6,30.12,South,186,6.0,6.0,80,0.00,,---,0.00,VWS V14.01,2013-01-30 02:12:00,
2013-01-29 21:17:00,63.9,57.6,30.11,SSE,161,3.0,6.0,80,0.00,,---,0.00,VWS V14.01,2013-01-30 02:17:00,
2013-01-29 21:22:00,63.8,57.5,30.11,South,172,3.0,5.0,80,0.00,,---,0.00,VWS V14.01,2013-01-30 02:22:00,
2013-01-29 21:27:00,63.7,57.4,30.11,SSE,157,1.0,3.0,80,0.00,,---,0.00,VWS V14.01,2013-01-30 02:27:00,
2013-01-29 21:31:00,63.4,57.5,30.12,West,260,1.0,3.0,81,0.00,,---,0.00,VWS V14.01,2013-01-30 02:31:00,
2013-01-29 21:36:00,63.3,57.4,30.12,WSW,240,1.0,4.0,81,0.00,,---,0.00,VWS V14.01,2013-01-30 02:36:00,
2013-01-29 21:41:00,63.2,57.3,30.13,SW,217,3.0,5.0,81,0.00,,---,0.00,VWS V14.01,2013-01-30 02:41:00,
2013-01-29 21:46:00,63.3,57.4,30.13,SSW,209,5.0,5.0,81,0.00,,---,0.00,VWS V14.01,2013-01-30 02:46:00,
2013-01-29 21:51:00,63.2,57.3,30.12,SSW,213,4.0,7.0,81,0.00,,---,0.00,VWS V14.01,2013-01-30 02:51:00,
2013-01-29 21:56:00,63.1,57.5,30.12,SSW,209,1.0,4.0,82,0.00,,---,0.00,VWS V14.01,2013-01-30 02:56:00,
2013-01-29 22:01:00,63.0,57.4,30.12,SSE,163,4.0,4.0,82,0.00,,---,0.00,VWS V14.01,2013-01-30 03:01:00,
2013-01-29 22:06:00,63.0,57.8,30.12,SSE,156,6.0,6.0,83,0.00,,---,0.00,VWS V14.01,2013-01-30 03:06:00,
2013-01-29 22:11:00,63.0,57.8,30.11,SSW,196,5.0,5.0,83,0.00,,---,0.00,VWS V14.01,2013-01-30 03:11:00,
2013-01-29 22:16:00,63.0,57.8,30.11,SW,232,6.0,6.0,83,0.00,,---,0.00,VWS V14.01,2013-01-30 03:16:00,
2013-01-29 22:21:00,62.9,57.7,30.12,South,176,3.0,6.0,83,0.00,,---,0.00,VWS V14.01,2013-01-30 03:21:00,
2013-01-29 22:26:00,62.8,57.6,30.12,South,169,6.0,6.0,83,0.00,,---,0.00,VWS V14.01,2013-01-30 03:26:00,
2013-01-29 22:31:00,62.7,57.8,30.12,SW,221,2.0,5.0,84,0.00,,---,0.00,VWS V14.01,2013-01-30 03:31:00,
2013-01-29 22:36:00,62.7,57.8,30.11,SSW,209,2.0,5.0,84,0.00,,---,0.00,VWS V14.01,2013-01-30 03:36:00,
2013-01-29 22:41:00,62.7,57.8,30.12,SW,225,6.0,8.0,84,0.00,,---,0.00,VWS V14.01,2013-01-30 03:41:00,
2013-01-29 22:46:00,62.6,57.7,30.12,SSW,193,1.0,5.0,84,0.00,,---,0.00,VWS V14.01,2013-01-30 03:46:00,
2013-01-29 22:51:00,62.3,57.7,30.13,West,263,4.0,8.0,85,0.00,,---,0.00,VWS V14.01,2013-01-30 03:51:00,
2013-01-29 22:56:00,62.3,57.7,30.13,SW,223,2.0,2.0,85,0.00,,---,0.00,VWS V14.01,2013-01-30 03:56:00,
2013-01-29 23:01:00,62.2,57.6,30.14,SW,236,3.0,3.0,85,0.00,,---,0.00,VWS V14.01,2013-01-30 04:01:00,
2013-01-29 23:06:00,62.0,57.8,30.14,SW,222,1.0,1.0,86,0.00,,---,0.00,VWS V14.01,2013-01-30 04:06:00,
2013-01-29 23:11:00,62.0,57.8,30.13,SW,227,1.0,6.0,86,0.00,,---,0.00,VWS V14.01,2013-01-30 04:11:00,
2013-01-29 23:16:00,61.8,57.6,30.13,South,175,1.0,2.0,86,0.00,,---,0.00,VWS V14.01,2013-01-30 04:16:00,
2013-01-29 23:21:00,61.6,57.4,30.13,South,188,2.0,3.0,86,0.00,,---,0.00,VWS V14.01,2013-01-30 04:21:00,
2013-01-29 23:26:00,61.4,57.5,30.13,South,191,2.0,3.0,87,0.00,,---,0.00,VWS V14.01,2013-01-30 04:26:00,
2013-01-29 23:31:00,61.2,57.3,30.12,SSW,213,1.0,2.0,87,0.00,,---,0.00,VWS V14.01,2013-01-30 04:31:00,
2013-01-29 23:36:00,61.1,57.5,30.12,SSW,194,2.0,3.0,88,0.00,,---,0.00,VWS V14.01,2013-01-30 04:36:00,
2013-01-29 23:41:00,60.9,57.3,30.11,SSW,206,2.0,2.0,88,0.00,,---,0.00,VWS V14.01,2013-01-30 04:41:00,
2013-01-29 23:46:00,60.8,57.2,30.11,SSW,199,2.0,3.0,88,0.00,,---,0.00,VWS V14.01,2013-01-30 04:46:00,
2013-01-29 23:51:00,60.7,57.4,30.11,SSW,196,1.0,2.0,89,0.00,,---,0.00,VWS V14.01,2013-01-30 04:51:00,
2013-01-29 23:56:00,60.5,57.2,30.11,SSW,202,1.0,1.0,89,0.00,,---,0.00,VWS V14.01,2013-01-30 04:56:00,